sensor_id;sensor_type;location;lat;lon;timestamp;P1;durP1;ratioP1;P2;durP2;ratioP2
47147;SDS011;32900;47.498;8.738;2022-08-19T00:01:58;15.65;;;12.23;;
47147;SDS011;32900;47.498;8.738;2022-08-19T00:04:30;14.23;;;10.73;;
47147;SDS011;32900;47.498;8.738;2022-08-19T00:07:00;14.18;;;10.35;;
47147;SDS011;32900;47.498;8.738;2022-08-19T00:09:27;14.55;;;11.88;;
47147;SDS011;32900;47.498;8.738;2022-08-19T00:11:55;15.48;;;11.73;;
47147;SDS011;32900;47.498;8.738;2022-08-19T00:14:24;16.65;;;12.30;;
47147;SDS011;32900;47.498;8.738;2022-08-19T00:16:52;14.35;;;11.60;;
47147;SDS011;32900;47.498;8.738;2022-08-19T00:19:20;15.77;;;11.85;;
47147;SDS011;32900;47.498;8.738;2022-08-19T00:21:48;15.30;;;12.40;;
47147;SDS011;32900;47.498;8.738;2022-08-19T00:24:15;14.80;;;11.88;;
47147;SDS011;32900;47.498;8.738;2022-08-19T00:26:43;14.52;;;11.15;;
47147;SDS011;32900;47.498;8.738;2022-08-19T00:29:12;15.18;;;12.15;;
47147;SDS011;32900;47.498;8.738;2022-08-19T00:31:41;16.52;;;13.10;;
47147;SDS011;32900;47.498;8.738;2022-08-19T00:34:09;16.23;;;12.55;;
47147;SDS011;32900;47.498;8.738;2022-08-19T00:36:37;16.45;;;12.65;;
47147;SDS011;32900;47.498;8.738;2022-08-19T00:39:05;13.98;;;11.27;;
47147;SDS011;32900;47.498;8.738;2022-08-19T00:41:32;14.38;;;11.07;;
47147;SDS011;32900;47.498;8.738;2022-08-19T00:44:03;15.82;;;12.15;;
47147;SDS011;32900;47.498;8.738;2022-08-19T00:46:33;13.77;;;10.57;;
47147;SDS011;32900;47.498;8.738;2022-08-19T00:49:05;14.60;;;10.88;;
47147;SDS011;32900;47.498;8.738;2022-08-19T00:51:38;13.50;;;10.95;;
47147;SDS011;32900;47.498;8.738;2022-08-19T00:54:05;15.32;;;11.25;;
47147;SDS011;32900;47.498;8.738;2022-08-19T00:56:31;16.02;;;11.38;;
47147;SDS011;32900;47.498;8.738;2022-08-19T00:58:59;15.20;;;11.68;;
47147;SDS011;32900;47.498;8.738;2022-08-19T01:01:27;15.45;;;11.27;;
47147;SDS011;32900;47.498;8.738;2022-08-19T01:03:54;12.90;;;10.15;;
47147;SDS011;32900;47.498;8.738;2022-08-19T01:06:24;13.95;;;10.25;;
47147;SDS011;32900;47.498;8.738;2022-08-19T01:08:53;11.80;;;9.73;;
47147;SDS011;32900;47.498;8.738;2022-08-19T01:11:20;11.45;;;9.52;;
47147;SDS011;32900;47.498;8.738;2022-08-19T01:13:47;11.73;;;9.27;;
47147;SDS011;32900;47.498;8.738;2022-08-19T01:16:16;10.68;;;8.48;;
47147;SDS011;32900;47.498;8.738;2022-08-19T01:18:45;12.05;;;7.95;;
47147;SDS011;32900;47.498;8.738;2022-08-19T01:21:16;12.45;;;7.95;;
47147;SDS011;32900;47.498;8.738;2022-08-19T01:23:51;11.30;;;8.20;;
47147;SDS011;32900;47.498;8.738;2022-08-19T01:26:20;12.70;;;8.88;;
47147;SDS011;32900;47.498;8.738;2022-08-19T01:28:50;11.07;;;9.05;;
47147;SDS011;32900;47.498;8.738;2022-08-19T01:31:20;11.60;;;8.45;;
47147;SDS011;32900;47.498;8.738;2022-08-19T01:33:53;11.77;;;9.55;;
47147;SDS011;32900;47.498;8.738;2022-08-19T01:36:25;11.45;;;9.38;;
47147;SDS011;32900;47.498;8.738;2022-08-19T01:38:57;11.52;;;9.02;;
47147;SDS011;32900;47.498;8.738;2022-08-19T01:41:25;12.95;;;9.13;;
47147;SDS011;32900;47.498;8.738;2022-08-19T01:43:52;13.63;;;9.15;;
47147;SDS011;32900;47.498;8.738;2022-08-19T01:46:40;11.75;;;9.10;;
47147;SDS011;32900;47.498;8.738;2022-08-19T01:49:07;11.32;;;9.27;;
47147;SDS011;32900;47.498;8.738;2022-08-19T01:51:36;11.32;;;9.38;;
47147;SDS011;32900;47.498;8.738;2022-08-19T01:54:05;11.27;;;8.70;;
47147;SDS011;32900;47.498;8.738;2022-08-19T01:56:33;13.27;;;8.93;;
47147;SDS011;32900;47.498;8.738;2022-08-19T01:59:02;10.80;;;9.15;;
47147;SDS011;32900;47.498;8.738;2022-08-19T02:01:32;13.25;;;8.88;;
47147;SDS011;32900;47.498;8.738;2022-08-19T02:04:00;11.02;;;8.43;;
47147;SDS011;32900;47.498;8.738;2022-08-19T02:06:27;10.05;;;8.05;;
47147;SDS011;32900;47.498;8.738;2022-08-19T02:08:54;10.48;;;8.18;;
47147;SDS011;32900;47.498;8.738;2022-08-19T02:11:27;10.80;;;8.20;;
47147;SDS011;32900;47.498;8.738;2022-08-19T02:13:57;12.27;;;7.70;;
47147;SDS011;32900;47.498;8.738;2022-08-19T02:16:25;9.52;;;7.10;;
47147;SDS011;32900;47.498;8.738;2022-08-19T02:18:52;8.57;;;5.95;;
47147;SDS011;32900;47.498;8.738;2022-08-19T02:21:20;9.00;;;6.57;;
47147;SDS011;32900;47.498;8.738;2022-08-19T02:58:31;21.48;;;13.88;;
47147;SDS011;32900;47.498;8.738;2022-08-19T03:00:58;21.95;;;13.82;;
47147;SDS011;32900;47.498;8.738;2022-08-19T03:03:25;20.63;;;13.38;;
47147;SDS011;32900;47.498;8.738;2022-08-19T03:06:02;21.15;;;13.95;;
47147;SDS011;32900;47.498;8.738;2022-08-19T03:08:30;23.52;;;15.07;;
47147;SDS011;32900;47.498;8.738;2022-08-19T03:10:57;20.85;;;14.32;;
47147;SDS011;32900;47.498;8.738;2022-08-19T03:13:24;20.65;;;14.93;;
47147;SDS011;32900;47.498;8.738;2022-08-19T03:15:51;22.55;;;15.73;;
47147;SDS011;32900;47.498;8.738;2022-08-19T03:18:17;26.45;;;17.60;;
47147;SDS011;32900;47.498;8.738;2022-08-19T03:20:45;22.98;;;16.70;;
47147;SDS011;32900;47.498;8.738;2022-08-19T03:23:16;28.63;;;18.23;;
47147;SDS011;32900;47.498;8.738;2022-08-19T03:25:46;22.80;;;16.67;;
47147;SDS011;32900;47.498;8.738;2022-08-19T03:28:29;22.52;;;16.55;;
47147;SDS011;32900;47.498;8.738;2022-08-19T03:30:57;26.02;;;18.50;;
47147;SDS011;32900;47.498;8.738;2022-08-19T03:33:27;24.90;;;17.92;;
47147;SDS011;32900;47.498;8.738;2022-08-19T03:35:59;26.08;;;18.30;;
47147;SDS011;32900;47.498;8.738;2022-08-19T03:38:42;25.95;;;17.85;;
47147;SDS011;32900;47.498;8.738;2022-08-19T03:41:11;26.30;;;18.38;;
47147;SDS011;32900;47.498;8.738;2022-08-19T03:43:41;26.42;;;19.08;;
47147;SDS011;32900;47.498;8.738;2022-08-19T03:46:11;26.85;;;18.48;;
47147;SDS011;32900;47.498;8.738;2022-08-19T03:48:48;28.25;;;19.67;;
47147;SDS011;32900;47.498;8.738;2022-08-19T03:51:30;26.92;;;19.75;;
47147;SDS011;32900;47.498;8.738;2022-08-19T03:54:02;26.98;;;19.33;;
47147;SDS011;32900;47.498;8.738;2022-08-19T03:56:33;25.77;;;19.73;;
47147;SDS011;32900;47.498;8.738;2022-08-19T03:59:01;31.67;;;19.60;;
47147;SDS011;32900;47.498;8.738;2022-08-19T04:01:30;25.42;;;18.88;;
47147;SDS011;32900;47.498;8.738;2022-08-19T04:04:01;25.48;;;18.63;;
47147;SDS011;32900;47.498;8.738;2022-08-19T04:06:31;28.27;;;19.75;;
47147;SDS011;32900;47.498;8.738;2022-08-19T04:09:01;27.05;;;19.70;;
47147;SDS011;32900;47.498;8.738;2022-08-19T04:11:31;28.00;;;19.65;;
47147;SDS011;32900;47.498;8.738;2022-08-19T04:14:09;26.48;;;19.65;;
47147;SDS011;32900;47.498;8.738;2022-08-19T04:16:39;27.15;;;19.60;;
47147;SDS011;32900;47.498;8.738;2022-08-19T04:19:06;28.33;;;20.25;;
47147;SDS011;32900;47.498;8.738;2022-08-19T04:21:33;29.15;;;20.92;;
47147;SDS011;32900;47.498;8.738;2022-08-19T04:24:01;29.17;;;20.63;;
47147;SDS011;32900;47.498;8.738;2022-08-19T04:26:31;28.52;;;21.45;;
47147;SDS011;32900;47.498;8.738;2022-08-19T04:29:00;30.88;;;21.27;;
47147;SDS011;32900;47.498;8.738;2022-08-19T04:31:37;30.45;;;20.83;;
47147;SDS011;32900;47.498;8.738;2022-08-19T04:34:05;31.55;;;21.58;;
47147;SDS011;32900;47.498;8.738;2022-08-19T04:36:34;35.65;;;23.00;;
47147;SDS011;32900;47.498;8.738;2022-08-19T04:39:03;35.35;;;22.20;;
47147;SDS011;32900;47.498;8.738;2022-08-19T04:41:35;36.05;;;22.80;;
47147;SDS011;32900;47.498;8.738;2022-08-19T04:44:21;35.95;;;24.05;;
47147;SDS011;32900;47.498;8.738;2022-08-19T04:46:49;33.10;;;22.75;;
47147;SDS011;32900;47.498;8.738;2022-08-19T04:49:18;36.97;;;23.88;;
47147;SDS011;32900;47.498;8.738;2022-08-19T04:51:48;34.10;;;23.60;;
47147;SDS011;32900;47.498;8.738;2022-08-19T04:54:20;39.63;;;24.67;;
47147;SDS011;32900;47.498;8.738;2022-08-19T04:57:03;36.65;;;23.20;;
47147;SDS011;32900;47.498;8.738;2022-08-19T04:59:33;38.13;;;24.83;;
47147;SDS011;32900;47.498;8.738;2022-08-19T05:02:00;35.75;;;25.17;;
47147;SDS011;32900;47.498;8.738;2022-08-19T05:04:27;37.03;;;24.70;;
47147;SDS011;32900;47.498;8.738;2022-08-19T05:06:58;39.25;;;25.33;;
47147;SDS011;32900;47.498;8.738;2022-08-19T05:09:26;37.65;;;25.50;;
47147;SDS011;32900;47.498;8.738;2022-08-19T05:12:13;36.92;;;23.20;;
47147;SDS011;32900;47.498;8.738;2022-08-19T05:14:41;32.25;;;23.05;;
47147;SDS011;32900;47.498;8.738;2022-08-19T05:17:07;35.53;;;24.38;;
47147;SDS011;32900;47.498;8.738;2022-08-19T05:19:52;34.05;;;24.08;;
47147;SDS011;32900;47.498;8.738;2022-08-19T05:22:38;33.80;;;24.00;;
47147;SDS011;32900;47.498;8.738;2022-08-19T05:25:07;37.83;;;25.52;;
47147;SDS011;32900;47.498;8.738;2022-08-19T05:27:39;34.85;;;24.08;;
47147;SDS011;32900;47.498;8.738;2022-08-19T05:30:07;32.00;;;24.15;;
47147;SDS011;32900;47.498;8.738;2022-08-19T05:32:35;35.72;;;24.85;;
47147;SDS011;32900;47.498;8.738;2022-08-19T05:35:03;34.40;;;24.42;;
47147;SDS011;32900;47.498;8.738;2022-08-19T05:37:30;36.70;;;24.83;;
47147;SDS011;32900;47.498;8.738;2022-08-19T05:39:57;36.33;;;25.00;;
47147;SDS011;32900;47.498;8.738;2022-08-19T05:42:24;35.35;;;24.05;;
47147;SDS011;32900;47.498;8.738;2022-08-19T05:44:51;36.95;;;24.65;;
47147;SDS011;32900;47.498;8.738;2022-08-19T05:47:18;35.80;;;24.77;;
47147;SDS011;32900;47.498;8.738;2022-08-19T05:49:46;33.65;;;24.10;;
47147;SDS011;32900;47.498;8.738;2022-08-19T05:52:15;36.55;;;23.95;;
47147;SDS011;32900;47.498;8.738;2022-08-19T05:54:44;32.90;;;23.35;;
47147;SDS011;32900;47.498;8.738;2022-08-19T05:57:17;35.72;;;25.15;;
47147;SDS011;32900;47.498;8.738;2022-08-19T05:59:45;36.40;;;24.95;;
47147;SDS011;32900;47.498;8.738;2022-08-19T06:02:14;37.40;;;24.85;;
47147;SDS011;32900;47.498;8.738;2022-08-19T06:04:41;35.47;;;23.48;;
47147;SDS011;32900;47.498;8.738;2022-08-19T06:07:09;36.53;;;24.70;;
47147;SDS011;32900;47.498;8.738;2022-08-19T06:09:38;33.65;;;24.05;;
47147;SDS011;32900;47.498;8.738;2022-08-19T06:12:06;34.25;;;25.08;;
47147;SDS011;32900;47.498;8.738;2022-08-19T06:14:33;34.58;;;24.75;;
47147;SDS011;32900;47.498;8.738;2022-08-19T06:17:07;35.20;;;25.00;;
47147;SDS011;32900;47.498;8.738;2022-08-19T06:19:34;35.90;;;25.40;;
47147;SDS011;32900;47.498;8.738;2022-08-19T06:22:06;34.45;;;23.35;;
47147;SDS011;32900;47.498;8.738;2022-08-19T06:24:33;32.92;;;24.13;;
47147;SDS011;32900;47.498;8.738;2022-08-19T06:27:01;32.65;;;23.73;;
47147;SDS011;32900;47.498;8.738;2022-08-19T06:29:28;31.73;;;23.02;;
47147;SDS011;32900;47.498;8.738;2022-08-19T06:31:57;36.35;;;24.52;;
47147;SDS011;32900;47.498;8.738;2022-08-19T06:34:27;34.40;;;23.27;;
47147;SDS011;32900;47.498;8.738;2022-08-19T06:36:56;31.48;;;22.90;;
47147;SDS011;32900;47.498;8.738;2022-08-19T06:39:30;35.08;;;23.77;;
47147;SDS011;32900;47.498;8.738;2022-08-19T06:42:00;29.73;;;22.17;;
47147;SDS011;32900;47.498;8.738;2022-08-19T06:44:30;31.67;;;22.25;;
47147;SDS011;32900;47.498;8.738;2022-08-19T06:47:06;30.30;;;21.77;;
47147;SDS011;32900;47.498;8.738;2022-08-19T06:49:40;27.25;;;20.35;;
47147;SDS011;32900;47.498;8.738;2022-08-19T06:52:07;29.65;;;21.05;;
47147;SDS011;32900;47.498;8.738;2022-08-19T06:54:39;30.75;;;22.50;;
47147;SDS011;32900;47.498;8.738;2022-08-19T06:57:22;29.25;;;21.05;;
47147;SDS011;32900;47.498;8.738;2022-08-19T06:59:50;37.70;;;24.08;;
47147;SDS011;32900;47.498;8.738;2022-08-19T07:02:17;34.70;;;22.10;;
47147;SDS011;32900;47.498;8.738;2022-08-19T07:04:45;30.83;;;20.92;;
47147;SDS011;32900;47.498;8.738;2022-08-19T07:07:14;28.25;;;21.08;;
47147;SDS011;32900;47.498;8.738;2022-08-19T07:09:46;27.45;;;20.92;;
47147;SDS011;32900;47.498;8.738;2022-08-19T07:12:27;29.35;;;20.30;;
47147;SDS011;32900;47.498;8.738;2022-08-19T07:14:55;26.70;;;19.73;;
47147;SDS011;32900;47.498;8.738;2022-08-19T07:17:23;29.25;;;20.67;;
47147;SDS011;32900;47.498;8.738;2022-08-19T07:19:50;33.00;;;21.88;;
47147;SDS011;32900;47.498;8.738;2022-08-19T07:22:20;26.95;;;20.92;;
47147;SDS011;32900;47.498;8.738;2022-08-19T07:24:50;29.73;;;20.85;;
47147;SDS011;32900;47.498;8.738;2022-08-19T07:27:18;28.73;;;20.30;;
47147;SDS011;32900;47.498;8.738;2022-08-19T07:32:23;28.92;;;19.67;;
47147;SDS011;32900;47.498;8.738;2022-08-19T07:34:52;30.65;;;21.92;;
47147;SDS011;32900;47.498;8.738;2022-08-19T07:37:21;27.10;;;20.52;;
47147;SDS011;32900;47.498;8.738;2022-08-19T07:39:49;28.48;;;20.30;;
47147;SDS011;32900;47.498;8.738;2022-08-19T07:42:16;28.58;;;20.73;;
47147;SDS011;32900;47.498;8.738;2022-08-19T07:44:44;28.40;;;20.90;;
47147;SDS011;32900;47.498;8.738;2022-08-19T07:47:16;30.67;;;20.95;;
47147;SDS011;32900;47.498;8.738;2022-08-19T07:50:05;26.52;;;18.15;;
47147;SDS011;32900;47.498;8.738;2022-08-19T07:52:36;29.65;;;20.42;;
47147;SDS011;32900;47.498;8.738;2022-08-19T07:55:05;29.15;;;20.13;;
47147;SDS011;32900;47.498;8.738;2022-08-19T07:57:54;30.80;;;20.85;;
47147;SDS011;32900;47.498;8.738;2022-08-19T08:00:21;27.73;;;19.65;;
47147;SDS011;32900;47.498;8.738;2022-08-19T08:02:49;28.73;;;21.33;;
47147;SDS011;32900;47.498;8.738;2022-08-19T08:05:16;30.48;;;21.20;;
47147;SDS011;32900;47.498;8.738;2022-08-19T08:08:08;30.30;;;20.83;;
47147;SDS011;32900;47.498;8.738;2022-08-19T08:10:53;28.70;;;20.73;;
47147;SDS011;32900;47.498;8.738;2022-08-19T08:13:23;31.40;;;21.20;;
47147;SDS011;32900;47.498;8.738;2022-08-19T08:15:51;29.65;;;20.17;;
47147;SDS011;32900;47.498;8.738;2022-08-19T08:18:21;28.80;;;19.58;;
47147;SDS011;32900;47.498;8.738;2022-08-19T08:20:56;27.02;;;19.42;;
47147;SDS011;32900;47.498;8.738;2022-08-19T08:23:24;28.55;;;18.35;;
47147;SDS011;32900;47.498;8.738;2022-08-19T08:25:54;28.10;;;20.17;;
47147;SDS011;32900;47.498;8.738;2022-08-19T08:28:23;27.70;;;19.85;;
47147;SDS011;32900;47.498;8.738;2022-08-19T08:30:55;26.92;;;19.77;;
47147;SDS011;32900;47.498;8.738;2022-08-19T08:33:24;27.52;;;19.52;;
47147;SDS011;32900;47.498;8.738;2022-08-19T08:36:09;28.08;;;19.80;;
47147;SDS011;32900;47.498;8.738;2022-08-19T08:38:37;27.92;;;18.85;;
47147;SDS011;32900;47.498;8.738;2022-08-19T08:43:55;27.75;;;19.92;;
47147;SDS011;32900;47.498;8.738;2022-08-19T08:46:36;26.95;;;19.50;;
47147;SDS011;32900;47.498;8.738;2022-08-19T08:54:24;26.83;;;18.83;;
47147;SDS011;32900;47.498;8.738;2022-08-19T08:57:00;22.13;;;16.73;;
47147;SDS011;32900;47.498;8.738;2022-08-19T08:59:33;23.20;;;16.95;;
47147;SDS011;32900;47.498;8.738;2022-08-19T09:02:03;23.83;;;16.95;;
47147;SDS011;32900;47.498;8.738;2022-08-19T09:04:29;22.90;;;17.60;;
47147;SDS011;32900;47.498;8.738;2022-08-19T09:09:42;21.83;;;16.73;;
47147;SDS011;32900;47.498;8.738;2022-08-19T09:12:19;25.60;;;17.00;;
47147;SDS011;32900;47.498;8.738;2022-08-19T09:15:05;23.02;;;17.33;;
47147;SDS011;32900;47.498;8.738;2022-08-19T09:17:34;24.25;;;16.50;;
47147;SDS011;32900;47.498;8.738;2022-08-19T09:22:39;25.33;;;19.05;;
47147;SDS011;32900;47.498;8.738;2022-08-19T09:25:11;24.23;;;17.58;;
47147;SDS011;32900;47.498;8.738;2022-08-19T09:27:41;25.75;;;18.65;;
47147;SDS011;32900;47.498;8.738;2022-08-19T09:30:13;25.42;;;18.80;;
47147;SDS011;32900;47.498;8.738;2022-08-19T09:32:43;29.95;;;20.30;;
47147;SDS011;32900;47.498;8.738;2022-08-19T09:35:11;27.52;;;20.35;;
47147;SDS011;32900;47.498;8.738;2022-08-19T09:37:41;27.58;;;21.10;;
47147;SDS011;32900;47.498;8.738;2022-08-19T09:40:23;26.67;;;20.30;;
47147;SDS011;32900;47.498;8.738;2022-08-19T09:42:55;30.45;;;22.40;;
47147;SDS011;32900;47.498;8.738;2022-08-19T09:45:35;32.60;;;22.27;;
47147;SDS011;32900;47.498;8.738;2022-08-19T09:48:04;29.95;;;21.70;;
47147;SDS011;32900;47.498;8.738;2022-08-19T09:50:48;29.50;;;21.02;;
47147;SDS011;32900;47.498;8.738;2022-08-19T09:53:26;34.17;;;23.08;;
47147;SDS011;32900;47.498;8.738;2022-08-19T09:55:58;30.35;;;22.35;;
47147;SDS011;32900;47.498;8.738;2022-08-19T09:58:44;34.30;;;22.90;;
47147;SDS011;32900;47.498;8.738;2022-08-19T10:01:20;34.42;;;24.10;;
47147;SDS011;32900;47.498;8.738;2022-08-19T10:03:58;34.67;;;24.30;;
47147;SDS011;32900;47.498;8.738;2022-08-19T10:06:27;33.63;;;23.70;;
47147;SDS011;32900;47.498;8.738;2022-08-19T10:09:12;35.00;;;25.15;;
47147;SDS011;32900;47.498;8.738;2022-08-19T10:11:51;35.05;;;24.13;;
47147;SDS011;32900;47.498;8.738;2022-08-19T10:14:28;35.70;;;25.17;;
47147;SDS011;32900;47.498;8.738;2022-08-19T10:16:59;36.83;;;26.90;;
47147;SDS011;32900;47.498;8.738;2022-08-19T10:19:46;39.22;;;27.42;;
47147;SDS011;32900;47.498;8.738;2022-08-19T10:22:21;40.30;;;28.02;;
47147;SDS011;32900;47.498;8.738;2022-08-19T10:24:57;44.00;;;29.50;;
47147;SDS011;32900;47.498;8.738;2022-08-19T10:27:31;44.90;;;29.52;;
47147;SDS011;32900;47.498;8.738;2022-08-19T10:30:00;41.47;;;28.67;;
47147;SDS011;32900;47.498;8.738;2022-08-19T10:32:35;42.15;;;27.45;;
47147;SDS011;32900;47.498;8.738;2022-08-19T10:35:12;41.53;;;28.88;;
47147;SDS011;32900;47.498;8.738;2022-08-19T10:37:47;41.40;;;28.05;;
47147;SDS011;32900;47.498;8.738;2022-08-19T10:40:27;42.50;;;27.83;;
47147;SDS011;32900;47.498;8.738;2022-08-19T10:42:58;42.08;;;29.08;;
47147;SDS011;32900;47.498;8.738;2022-08-19T10:45:32;44.20;;;28.85;;
47147;SDS011;32900;47.498;8.738;2022-08-19T10:48:00;42.92;;;28.88;;
47147;SDS011;32900;47.498;8.738;2022-08-19T10:53:49;46.05;;;29.95;;
47147;SDS011;32900;47.498;8.738;2022-08-19T10:56:22;44.17;;;30.50;;
47147;SDS011;32900;47.498;8.738;2022-08-19T10:59:24;42.45;;;30.65;;
47147;SDS011;32900;47.498;8.738;2022-08-19T11:02:02;46.65;;;31.95;;
47147;SDS011;32900;47.498;8.738;2022-08-19T11:04:39;51.05;;;31.02;;
47147;SDS011;32900;47.498;8.738;2022-08-19T11:07:08;44.63;;;30.58;;
47147;SDS011;32900;47.498;8.738;2022-08-19T11:09:39;45.15;;;31.58;;
47147;SDS011;32900;47.498;8.738;2022-08-19T11:12:14;50.35;;;33.03;;
47147;SDS011;32900;47.498;8.738;2022-08-19T11:14:48;48.58;;;32.40;;
47147;SDS011;32900;47.498;8.738;2022-08-19T11:28:40;47.00;;;29.40;;
47147;SDS011;32900;47.498;8.738;2022-08-19T11:34:29;42.90;;;30.70;;
47147;SDS011;32900;47.498;8.738;2022-08-19T11:37:16;47.13;;;32.05;;
47147;SDS011;32900;47.498;8.738;2022-08-19T11:39:45;45.35;;;30.65;;
47147;SDS011;32900;47.498;8.738;2022-08-19T11:42:19;42.35;;;29.65;;
47147;SDS011;32900;47.498;8.738;2022-08-19T11:45:30;44.83;;;30.83;;
47147;SDS011;32900;47.498;8.738;2022-08-19T11:47:56;43.53;;;30.23;;
47147;SDS011;32900;47.498;8.738;2022-08-19T11:50:23;47.80;;;31.77;;
47147;SDS011;32900;47.498;8.738;2022-08-19T11:52:53;47.13;;;32.33;;
47147;SDS011;32900;47.498;8.738;2022-08-19T11:55:21;45.70;;;30.75;;
47147;SDS011;32900;47.498;8.738;2022-08-19T11:57:48;48.25;;;31.90;;
47147;SDS011;32900;47.498;8.738;2022-08-19T12:00:15;50.58;;;33.47;;
47147;SDS011;32900;47.498;8.738;2022-08-19T12:02:42;50.10;;;32.75;;
47147;SDS011;32900;47.498;8.738;2022-08-19T12:05:09;49.88;;;33.20;;
47147;SDS011;32900;47.498;8.738;2022-08-19T12:07:38;48.15;;;32.00;;
47147;SDS011;32900;47.498;8.738;2022-08-19T12:10:06;48.55;;;32.72;;
47147;SDS011;32900;47.498;8.738;2022-08-19T12:12:34;48.35;;;32.42;;
47147;SDS011;32900;47.498;8.738;2022-08-19T12:17:50;48.28;;;33.08;;
47147;SDS011;32900;47.498;8.738;2022-08-19T12:23:15;48.15;;;32.92;;
47147;SDS011;32900;47.498;8.738;2022-08-19T12:29:15;47.97;;;31.80;;
47147;SDS011;32900;47.498;8.738;2022-08-19T12:32:14;45.95;;;31.23;;
47147;SDS011;32900;47.498;8.738;2022-08-19T12:40:58;42.58;;;30.58;;
47147;SDS011;32900;47.498;8.738;2022-08-19T12:43:26;48.58;;;34.63;;
47147;SDS011;32900;47.498;8.738;2022-08-19T12:45:54;51.00;;;35.80;;
47147;SDS011;32900;47.498;8.738;2022-08-19T12:48:22;54.13;;;35.25;;
47147;SDS011;32900;47.498;8.738;2022-08-19T12:51:11;51.30;;;35.35;;
47147;SDS011;32900;47.498;8.738;2022-08-19T12:59:38;54.72;;;37.78;;
47147;SDS011;32900;47.498;8.738;2022-08-19T13:02:06;54.25;;;37.10;;
47147;SDS011;32900;47.498;8.738;2022-08-19T13:04:34;59.20;;;39.28;;
47147;SDS011;32900;47.498;8.738;2022-08-19T13:09:51;57.47;;;38.20;;
47147;SDS011;32900;47.498;8.738;2022-08-19T13:12:58;54.92;;;37.38;;
47147;SDS011;32900;47.498;8.738;2022-08-19T13:15:46;49.97;;;35.88;;
47147;SDS011;32900;47.498;8.738;2022-08-19T13:18:13;51.97;;;37.30;;
47147;SDS011;32900;47.498;8.738;2022-08-19T15:26:03;47.55;;;31.75;;
47147;SDS011;32900;47.498;8.738;2022-08-19T15:28:41;47.65;;;32.55;;
47147;SDS011;32900;47.498;8.738;2022-08-19T15:31:09;46.67;;;32.10;;
47147;SDS011;32900;47.498;8.738;2022-08-19T15:33:53;41.55;;;30.27;;
47147;SDS011;32900;47.498;8.738;2022-08-19T15:36:23;46.40;;;33.63;;
47147;SDS011;32900;47.498;8.738;2022-08-19T15:38:51;45.00;;;33.45;;
47147;SDS011;32900;47.498;8.738;2022-08-19T15:41:21;47.53;;;32.15;;
47147;SDS011;32900;47.498;8.738;2022-08-19T15:43:52;47.75;;;32.72;;
47147;SDS011;32900;47.498;8.738;2022-08-19T15:46:41;39.90;;;30.40;;
47147;SDS011;32900;47.498;8.738;2022-08-19T15:49:09;43.85;;;31.13;;
47147;SDS011;32900;47.498;8.738;2022-08-19T15:51:38;44.70;;;30.75;;
47147;SDS011;32900;47.498;8.738;2022-08-19T15:54:08;42.17;;;30.75;;
47147;SDS011;32900;47.498;8.738;2022-08-19T15:56:37;42.17;;;30.63;;
47147;SDS011;32900;47.498;8.738;2022-08-19T15:59:24;41.85;;;29.25;;
47147;SDS011;32900;47.498;8.738;2022-08-19T16:02:13;44.47;;;31.80;;
47147;SDS011;32900;47.498;8.738;2022-08-19T16:04:59;42.17;;;30.95;;
47147;SDS011;32900;47.498;8.738;2022-08-19T16:08:05;44.25;;;32.08;;
47147;SDS011;32900;47.498;8.738;2022-08-19T16:10:32;45.47;;;31.17;;
47147;SDS011;32900;47.498;8.738;2022-08-19T16:12:59;42.05;;;31.02;;
47147;SDS011;32900;47.498;8.738;2022-08-19T16:15:27;42.33;;;30.92;;
47147;SDS011;32900;47.498;8.738;2022-08-19T16:17:56;45.13;;;31.10;;
47147;SDS011;32900;47.498;8.738;2022-08-19T16:20:24;46.58;;;31.30;;
47147;SDS011;32900;47.498;8.738;2022-08-19T16:22:52;42.10;;;29.92;;
47147;SDS011;32900;47.498;8.738;2022-08-19T16:25:21;42.92;;;30.98;;
47147;SDS011;32900;47.498;8.738;2022-08-19T16:27:52;43.25;;;29.23;;
47147;SDS011;32900;47.498;8.738;2022-08-19T16:30:33;42.30;;;31.88;;
47147;SDS011;32900;47.498;8.738;2022-08-19T16:33:00;42.65;;;31.33;;
47147;SDS011;32900;47.498;8.738;2022-08-19T16:35:27;41.53;;;31.30;;
47147;SDS011;32900;47.498;8.738;2022-08-19T16:37:54;40.38;;;28.90;;
47147;SDS011;32900;47.498;8.738;2022-08-19T16:40:21;41.17;;;28.88;;
47147;SDS011;32900;47.498;8.738;2022-08-19T16:42:48;37.97;;;27.15;;
47147;SDS011;32900;47.498;8.738;2022-08-19T16:45:16;38.47;;;28.70;;
47147;SDS011;32900;47.498;8.738;2022-08-19T16:47:44;38.00;;;28.35;;
47147;SDS011;32900;47.498;8.738;2022-08-19T16:50:11;37.92;;;28.08;;
47147;SDS011;32900;47.498;8.738;2022-08-19T16:52:37;41.28;;;28.27;;
47147;SDS011;32900;47.498;8.738;2022-08-19T16:55:04;37.30;;;26.65;;
47147;SDS011;32900;47.498;8.738;2022-08-19T16:57:33;37.88;;;27.48;;
47147;SDS011;32900;47.498;8.738;2022-08-19T17:00:00;40.25;;;27.67;;
47147;SDS011;32900;47.498;8.738;2022-08-19T17:02:34;36.20;;;27.05;;
47147;SDS011;32900;47.498;8.738;2022-08-19T17:05:01;38.33;;;28.60;;
47147;SDS011;32900;47.498;8.738;2022-08-19T17:07:28;37.10;;;28.48;;
47147;SDS011;32900;47.498;8.738;2022-08-19T17:09:59;35.97;;;26.40;;
47147;SDS011;32900;47.498;8.738;2022-08-19T17:12:26;37.15;;;26.58;;
47147;SDS011;32900;47.498;8.738;2022-08-19T17:14:58;33.63;;;25.48;;
47147;SDS011;32900;47.498;8.738;2022-08-19T17:19:57;33.40;;;25.08;;
47147;SDS011;32900;47.498;8.738;2022-08-19T17:22:25;36.08;;;25.75;;
47147;SDS011;32900;47.498;8.738;2022-08-19T17:24:52;35.75;;;25.90;;
47147;SDS011;32900;47.498;8.738;2022-08-19T17:27:23;32.25;;;24.52;;
47147;SDS011;32900;47.498;8.738;2022-08-19T17:29:50;28.77;;;21.95;;
47147;SDS011;32900;47.498;8.738;2022-08-19T17:32:18;31.40;;;23.67;;
47147;SDS011;32900;47.498;8.738;2022-08-19T17:37:19;34.25;;;24.67;;
47147;SDS011;32900;47.498;8.738;2022-08-19T17:39:46;34.83;;;25.38;;
47147;SDS011;32900;47.498;8.738;2022-08-19T17:42:13;31.75;;;22.83;;
47147;SDS011;32900;47.498;8.738;2022-08-19T17:44:39;32.28;;;24.33;;
47147;SDS011;32900;47.498;8.738;2022-08-19T17:47:07;33.58;;;24.55;;
47147;SDS011;32900;47.498;8.738;2022-08-19T17:49:33;29.77;;;21.75;;
47147;SDS011;32900;47.498;8.738;2022-08-19T17:52:02;24.67;;;19.30;;
47147;SDS011;32900;47.498;8.738;2022-08-19T17:54:35;28.70;;;22.63;;
47147;SDS011;32900;47.498;8.738;2022-08-19T17:57:04;29.15;;;22.13;;
47147;SDS011;32900;47.498;8.738;2022-08-19T17:59:31;33.70;;;24.05;;
47147;SDS011;32900;47.498;8.738;2022-08-19T18:01:58;30.15;;;22.27;;
47147;SDS011;32900;47.498;8.738;2022-08-19T18:04:25;30.95;;;22.60;;
47147;SDS011;32900;47.498;8.738;2022-08-19T18:06:52;27.80;;;21.95;;
47147;SDS011;32900;47.498;8.738;2022-08-19T18:09:22;27.63;;;21.25;;
47147;SDS011;32900;47.498;8.738;2022-08-19T18:12:07;25.67;;;20.15;;
47147;SDS011;32900;47.498;8.738;2022-08-19T18:14:36;25.88;;;20.30;;
47147;SDS011;32900;47.498;8.738;2022-08-19T18:17:05;27.13;;;19.77;;
47147;SDS011;32900;47.498;8.738;2022-08-19T18:19:39;25.67;;;19.80;;
47147;SDS011;32900;47.498;8.738;2022-08-19T18:22:10;24.95;;;20.10;;
47147;SDS011;32900;47.498;8.738;2022-08-19T18:25:12;27.17;;;19.52;;
47147;SDS011;32900;47.498;8.738;2022-08-19T18:27:47;25.85;;;19.35;;
47147;SDS011;32900;47.498;8.738;2022-08-19T18:30:14;26.35;;;19.60;;
47147;SDS011;32900;47.498;8.738;2022-08-19T18:32:42;23.83;;;17.50;;